Time;durP1;ratioP1;P1;durP2;ratioP2;P2;SDS_P1;SDS_P2;PMS_P1;PMS_P2;Temp;Humidity;BMP_temperature;BMP_pressure;BME280_temperature;BME280_humidity;BME280_pressure;Samples;Min_cycle;Max_cycle;Signal;HPM_P1;HPM_P2
2024/01/14 00:00:33;;;;;;;60.53;22.40;;;;;;;;;;4987270;28;20299;-68
2024/01/14 00:02:58;;;;;;;57.10;22.30;;;;;;;;;;4987252;28;20057;-68
2024/01/14 00:05:23;;;;;;;61.10;22.63;;;;;;;;;;4986600;28;20062;-68
2024/01/14 00:07:49;;;;;;;61.95;22.40;;;;;;;;;;4989418;28;20030;-68
2024/01/14 00:10:14;;;;;;;59.90;22.35;;;;;;;;;;4987644;28;20109;-68
2024/01/14 00:12:39;;;;;;;59.85;21.90;;;;;;;;;;4985459;28;20044;-67
2024/01/14 00:15:05;;;;;;;57.08;21.80;;;;;;;;;;4989213;28;20032;-68
2024/01/14 00:17:30;;;;;;;63.40;22.35;;;;;;;;;;4984240;28;20109;-69
2024/01/14 00:19:56;;;;;;;61.67;21.95;;;;;;;;;;4971068;28;20469;-68
2024/01/14 00:22:21;;;;;;;56.28;21.60;;;;;;;;;;4986241;28;20018;-67
2024/01/14 00:24:46;;;;;;;55.45;21.58;;;;;;;;;;4988660;28;20034;-69
2024/01/14 00:27:12;;;;;;;62.60;21.67;;;;;;;;;;4985452;28;20043;-68
2024/01/14 00:29:39;;;;;;;58.45;22.63;;;;;;;;;;4986852;28;20046;-68
2024/01/14 00:32:05;;;;;;;58.17;22.88;;;;;;;;;;4986703;28;20030;-67
2024/01/14 00:34:30;;;;;;;58.53;22.45;;;;;;;;;;4988328;28;20084;-68
2024/01/14 00:36:55;;;;;;;56.73;23.47;;;;;;;;;;4985817;28;20403;-68
2024/01/14 00:39:21;;;;;;;65.45;23.58;;;;;;;;;;4986169;28;20279;-68
2024/01/14 00:41:47;;;;;;;58.33;22.65;;;;;;;;;;4987938;28;20556;-68
2024/01/14 00:44:12;;;;;;;57.45;21.70;;;;;;;;;;4987467;28;20562;-68
2024/01/14 00:46:37;;;;;;;56.03;21.75;;;;;;;;;;4971352;28;20027;-68
2024/01/14 00:49:03;;;;;;;56.95;22.13;;;;;;;;;;4985938;28;20030;-68
2024/01/14 00:51:28;;;;;;;63.20;22.20;;;;;;;;;;4984460;28;20101;-68
2024/01/14 00:53:53;;;;;;;61.93;23.23;;;;;;;;;;4990046;28;20391;-67
2024/01/14 00:56:18;;;;;;;59.10;23.08;;;;;;;;;;4991078;28;20272;-68
2024/01/14 00:58:44;;;;;;;55.00;21.95;;;;;;;;;;4990081;28;20389;-67
2024/01/14 01:01:09;;;;;;;55.10;21.70;;;;;;;;;;4972177;28;20065;-67
2024/01/14 01:03:34;;;;;;;56.58;22.30;;;;;;;;;;4990458;28;20272;-68
2024/01/14 01:06:00;;;;;;;58.28;21.35;;;;;;;;;;4987855;28;20042;-68
2024/01/14 01:08:25;;;;;;;60.13;22.07;;;;;;;;;;4989917;28;20382;-68
2024/01/14 01:10:50;;;;;;;56.65;20.55;;;;;;;;;;4989979;28;20268;-69
2024/01/14 01:13:15;;;;;;;65.68;22.50;;;;;;;;;;4988480;28;20053;-69
2024/01/14 01:15:41;;;;;;;55.30;20.90;;;;;;;;;;4990483;28;20026;-68
2024/01/14 01:18:06;;;;;;;54.70;21.90;;;;;;;;;;4993461;28;20228;-67
2024/01/14 01:20:31;;;;;;;59.05;23.33;;;;;;;;;;4988720;28;20292;-68
2024/01/14 01:22:57;;;;;;;61.23;21.57;;;;;;;;;;4988820;28;20034;-68
2024/01/14 01:25:22;;;;;;;57.00;22.85;;;;;;;;;;4971425;28;20342;-68
2024/01/14 01:27:48;;;;;;;56.87;21.63;;;;;;;;;;4990979;28;20045;-68
2024/01/14 01:30:13;;;;;;;57.03;21.20;;;;;;;;;;4971815;28;20276;-67
2024/01/14 01:32:38;;;;;;;52.92;21.45;;;;;;;;;;4988713;28;20279;-67
2024/01/14 01:35:04;;;;;;;57.33;22.15;;;;;;;;;;4989991;28;20064;-67
2024/01/14 01:37:29;;;;;;;57.33;22.42;;;;;;;;;;4989076;28;20438;-69
2024/01/14 01:39:56;;;;;;;60.70;22.25;;;;;;;;;;4988161;28;20041;-68
2024/01/14 01:42:21;;;;;;;60.95;22.00;;;;;;;;;;4983873;28;20113;-69
2024/01/14 01:44:46;;;;;;;57.63;21.97;;;;;;;;;;4991326;28;20129;-69
2024/01/14 01:47:12;;;;;;;61.60;22.47;;;;;;;;;;4990590;28;20754;-67
2024/01/14 01:49:37;;;;;;;54.50;20.67;;;;;;;;;;4974432;28;20280;-68
2024/01/14 01:52:05;;;;;;;55.90;21.77;;;;;;;;;;4989467;28;20045;-68
2024/01/14 01:54:32;;;;;;;51.90;21.83;;;;;;;;;;4988387;28;20106;-69
2024/01/14 01:56:57;;;;;;;54.95;21.65;;;;;;;;;;4986181;28;20076;-68
2024/01/14 01:59:23;;;;;;;53.38;22.25;;;;;;;;;;4963329;28;20046;-69
2024/01/14 02:01:49;;;;;;;57.75;21.98;;;;;;;;;;4990336;28;20072;-69
2024/01/14 02:04:15;;;;;;;63.10;22.10;;;;;;;;;;4987969;28;20030;-69
2024/01/14 02:06:41;;;;;;;62.95;23.45;;;;;;;;;;4989597;28;20076;-69
2024/01/14 02:09:07;;;;;;;53.60;21.80;;;;;;;;;;4988845;28;20545;-68
2024/01/14 02:11:33;;;;;;;56.25;23.40;;;;;;;;;;4989576;28;20404;-68
2024/01/14 02:13:58;;;;;;;57.72;21.33;;;;;;;;;;4988838;28;20030;-68
2024/01/14 02:16:23;;;;;;;57.80;22.45;;;;;;;;;;4990133;28;20087;-68
2024/01/14 02:18:48;;;;;;;62.77;22.20;;;;;;;;;;4987360;28;20041;-69
2024/01/14 02:21:17;;;;;;;60.47;23.17;;;;;;;;;;4989134;28;21873;-68
2024/01/14 02:23:43;;;;;;;60.22;22.92;;;;;;;;;;4987557;28;20420;-68
2024/01/14 02:26:08;;;;;;;60.28;23.33;;;;;;;;;;4971334;28;20034;-68
2024/01/14 02:28:34;;;;;;;55.57;21.87;;;;;;;;;;4984546;28;20053;-69
2024/01/14 02:30:59;;;;;;;52.90;21.50;;;;;;;;;;4986030;28;20607;-68
2024/01/14 02:33:25;;;;;;;61.35;22.58;;;;;;;;;;4985630;28;20037;-68
2024/01/14 02:35:50;;;;;;;58.00;22.50;;;;;;;;;;4972100;28;20033;-68
2024/01/14 02:38:16;;;;;;;58.80;23.45;;;;;;;;;;4988153;28;20042;-69
2024/01/14 02:40:41;;;;;;;61.75;23.85;;;;;;;;;;4987196;28;20026;-68
2024/01/14 02:43:06;;;;;;;61.53;23.13;;;;;;;;;;4969270;28;20276;-68
2024/01/14 02:45:32;;;;;;;56.58;21.75;;;;;;;;;;4986120;28;20117;-69
2024/01/14 02:47:57;;;;;;;57.53;21.23;;;;;;;;;;4987536;28;20118;-68
2024/01/14 02:50:22;;;;;;;56.25;22.67;;;;;;;;;;4985995;28;20483;-69
2024/01/14 02:52:48;;;;;;;56.33;23.45;;;;;;;;;;4988282;28;20039;-68
2024/01/14 02:55:13;;;;;;;59.45;22.92;;;;;;;;;;4971074;28;20025;-68
2024/01/14 02:57:38;;;;;;;62.85;23.55;;;;;;;;;;4987741;28;20031;-67
2024/01/14 03:00:04;;;;;;;63.80;23.40;;;;;;;;;;4985496;28;20163;-68
2024/01/14 03:02:29;;;;;;;59.47;23.50;;;;;;;;;;4986479;28;20026;-68
2024/01/14 03:04:54;;;;;;;62.53;23.83;;;;;;;;;;4972163;28;20027;-67
2024/01/14 03:07:20;;;;;;;56.30;21.80;;;;;;;;;;4986412;28;20572;-68
2024/01/14 03:09:45;;;;;;;61.08;22.83;;;;;;;;;;4983809;28;20034;-68
2024/01/14 03:12:10;;;;;;;57.90;23.10;;;;;;;;;;4987883;28;20036;-68
2024/01/14 03:14:35;;;;;;;55.78;20.95;;;;;;;;;;4987040;28;20279;-69
2024/01/14 03:17:01;;;;;;;50.10;19.97;;;;;;;;;;4984947;28;20124;-68
2024/01/14 03:19:26;;;;;;;58.25;21.30;;;;;;;;;;4968354;28;20277;-68
2024/01/14 03:21:52;;;;;;;56.57;20.70;;;;;;;;;;4969088;28;20034;-68
2024/01/14 03:24:17;;;;;;;54.30;20.75;;;;;;;;;;4986899;28;20327;-68
2024/01/14 03:26:43;;;;;;;51.80;20.02;;;;;;;;;;4985232;28;20138;-67
2024/01/14 03:29:08;;;;;;;56.55;20.55;;;;;;;;;;4984788;28;20462;-68
2024/01/14 03:31:35;;;;;;;55.42;21.73;;;;;;;;;;4986183;28;20618;-68
2024/01/14 03:34:00;;;;;;;52.35;21.73;;;;;;;;;;4959814;28;20030;-69
2024/01/14 03:36:25;;;;;;;57.65;22.50;;;;;;;;;;4986024;28;20026;-68
2024/01/14 03:38:51;;;;;;;56.87;22.13;;;;;;;;;;4985435;28;20025;-68
2024/01/14 03:41:16;;;;;;;52.50;21.43;;;;;;;;;;4983306;28;20280;-69
2024/01/14 03:43:42;;;;;;;52.00;21.53;;;;;;;;;;4987538;28;20274;-68
2024/01/14 03:46:07;;;;;;;57.75;22.52;;;;;;;;;;4970477;28;20342;-68
2024/01/14 03:48:32;;;;;;;64.72;25.13;;;;;;;;;;4988403;28;20053;-68
2024/01/14 03:50:58;;;;;;;64.37;25.07;;;;;;;;;;4970004;28;20562;-67
2024/01/14 03:53:23;;;;;;;61.92;23.67;;;;;;;;;;4987679;28;20284;-67
2024/01/14 03:55:48;;;;;;;66.75;24.73;;;;;;;;;;4967567;28;20077;-68
2024/01/14 03:58:14;;;;;;;58.05;21.95;;;;;;;;;;4968547;28;20035;-68
2024/01/14 04:00:40;;;;;;;59.83;22.23;;;;;;;;;;4986037;28;20057;-68
2024/01/14 04:03:05;;;;;;;53.87;22.33;;;;;;;;;;4963243;28;20045;-68
2024/01/14 04:05:30;;;;;;;65.07;24.58;;;;;;;;;;4985330;28;20790;-69
2024/01/14 04:07:55;;;;;;;65.18;23.98;;;;;;;;;;4985007;28;20031;-68
2024/01/14 04:10:21;;;;;;;59.28;21.75;;;;;;;;;;4970833;28;20054;-69
2024/01/14 04:12:46;;;;;;;49.08;19.63;;;;;;;;;;4986800;28;20516;-68
2024/01/14 04:15:11;;;;;;;53.70;21.60;;;;;;;;;;4986221;28;20051;-68
2024/01/14 04:17:37;;;;;;;52.22;20.90;;;;;;;;;;4987492;28;20036;-67
2024/01/14 04:20:03;;;;;;;59.40;21.67;;;;;;;;;;4968146;28;20444;-68
2024/01/14 04:22:29;;;;;;;52.83;20.83;;;;;;;;;;4969787;28;20821;-69
2024/01/14 04:24:54;;;;;;;479.73;109.82;;;;;;;;;;4982717;28;20045;-69
2024/01/14 04:27:19;;;;;;;68.55;23.90;;;;;;;;;;4967655;28;20555;-68
2024/01/14 04:29:44;;;;;;;71.10;23.42;;;;;;;;;;4985706;28;20030;-68
2024/01/14 04:32:10;;;;;;;61.10;22.63;;;;;;;;;;4987569;28;20034;-69
2024/01/14 04:34:35;;;;;;;51.20;19.30;;;;;;;;;;4987308;28;20885;-69
2024/01/14 04:37:01;;;;;;;47.67;19.30;;;;;;;;;;4969952;28;20081;-69
2024/01/14 04:39:26;;;;;;;52.78;20.05;;;;;;;;;;4986368;28;20034;-68
2024/01/14 04:41:52;;;;;;;52.38;20.13;;;;;;;;;;4970922;28;20070;-68
2024/01/14 04:44:17;;;;;;;50.10;19.98;;;;;;;;;;4985418;28;20105;-66
2024/01/14 04:46:42;;;;;;;52.70;21.13;;;;;;;;;;4984017;28;20034;-69
2024/01/14 04:49:08;;;;;;;55.38;22.02;;;;;;;;;;4970265;28;20024;-67
2024/01/14 04:51:34;;;;;;;58.20;23.00;;;;;;;;;;4987795;28;20030;-69
2024/01/14 04:53:59;;;;;;;53.55;21.35;;;;;;;;;;4986330;28;20038;-69
2024/01/14 04:56:25;;;;;;;58.83;21.95;;;;;;;;;;4988029;28;20480;-69
2024/01/14 04:58:50;;;;;;;58.53;21.88;;;;;;;;;;4964406;28;20065;-68
2024/01/14 05:01:15;;;;;;;58.33;24.60;;;;;;;;;;4969242;28;20034;-68
2024/01/14 05:03:41;;;;;;;57.20;21.48;;;;;;;;;;4985144;28;20041;-69
2024/01/14 05:06:06;;;;;;;54.33;20.20;;;;;;;;;;4987507;28;20041;-68
2024/01/14 05:08:31;;;;;;;53.00;20.63;;;;;;;;;;4986983;28;20971;-69
2024/01/14 05:10:58;;;;;;;60.05;22.08;;;;;;;;;;4987888;28;20022;-68
2024/01/14 05:13:23;;;;;;;58.85;22.25;;;;;;;;;;4985265;28;20516;-67
2024/01/14 05:15:49;;;;;;;51.27;20.53;;;;;;;;;;4987448;28;20027;-69
2024/01/14 05:18:15;;;;;;;53.50;20.60;;;;;;;;;;4988553;28;20319;-69
2024/01/14 05:20:41;;;;;;;52.40;20.48;;;;;;;;;;4984781;28;20511;-68
2024/01/14 05:23:08;;;;;;;55.92;20.23;;;;;;;;;;4986453;28;20031;-69
2024/01/14 05:25:33;;;;;;;50.78;19.83;;;;;;;;;;4983984;28;20529;-67
2024/01/14 05:27:58;;;;;;;55.75;19.80;;;;;;;;;;4987627;28;20057;-68
2024/01/14 05:30:23;;;;;;;51.42;19.38;;;;;;;;;;4984397;28;20050;-70
2024/01/14 05:32:49;;;;;;;51.72;20.42;;;;;;;;;;4987432;28;20113;-68
2024/01/14 05:35:14;;;;;;;64.70;21.53;;;;;;;;;;4983875;28;20789;-68
2024/01/14 05:37:39;;;;;;;49.60;21.20;;;;;;;;;;4985862;28;20268;-68
2024/01/14 05:40:05;;;;;;;53.63;20.50;;;;;;;;;;4989587;28;20018;-67
2024/01/14 05:42:30;;;;;;;52.80;20.80;;;;;;;;;;4971039;28;20276;-69
2024/01/14 05:44:55;;;;;;;54.10;20.88;;;;;;;;;;4987754;28;20034;-68
2024/01/14 05:47:21;;;;;;;58.22;21.60;;;;;;;;;;4986756;28;20750;-65
2024/01/14 05:49:46;;;;;;;57.13;21.60;;;;;;;;;;4985898;28;20567;-67
2024/01/14 05:52:12;;;;;;;59.33;23.00;;;;;;;;;;4989284;28;20284;-69
2024/01/14 05:54:37;;;;;;;59.58;22.80;;;;;;;;;;4988836;28;20022;-68
2024/01/14 05:57:02;;;;;;;53.77;20.73;;;;;;;;;;4986821;28;20018;-68
2024/01/14 05:59:27;;;;;;;60.85;22.23;;;;;;;;;;4987601;28;20366;-69
2024/01/14 06:01:55;;;;;;;60.20;21.87;;;;;;;;;;4985290;28;20034;-68
2024/01/14 06:04:20;;;;;;;55.90;21.50;;;;;;;;;;4969677;28;20406;-68
2024/01/14 06:06:46;;;;;;;59.70;23.10;;;;;;;;;;4990230;28;20489;-69
2024/01/14 06:09:11;;;;;;;58.80;22.13;;;;;;;;;;4972130;28;20065;-69
2024/01/14 06:11:38;;;;;;;59.88;23.48;;;;;;;;;;4971767;28;20038;-66
2024/01/14 06:14:04;;;;;;;53.30;21.67;;;;;;;;;;4989551;28;20030;-68
2024/01/14 06:16:29;;;;;;;63.47;23.42;;;;;;;;;;4990291;28;20027;-68
2024/01/14 06:18:55;;;;;;;63.75;22.98;;;;;;;;;;4986045;28;20036;-68
2024/01/14 06:21:20;;;;;;;59.37;21.63;;;;;;;;;;4989367;28;20034;-69
2024/01/14 06:23:45;;;;;;;60.47;22.27;;;;;;;;;;4985893;28;20271;-68
2024/01/14 06:26:17;;;;;;;51.20;20.38;;;;;;;;;;4979253;28;20292;-69
2024/01/14 06:28:42;;;;;;;53.22;21.25;;;;;;;;;;4985703;28;20042;-68
2024/01/14 06:31:07;;;;;;;56.08;22.33;;;;;;;;;;4985015;28;20092;-68
2024/01/14 06:33:33;;;;;;;56.67;22.30;;;;;;;;;;4986702;28;20393;-68
2024/01/14 06:35:58;;;;;;;50.95;21.05;;;;;;;;;;4985661;28;20034;-68
2024/01/14 06:38:23;;;;;;;53.22;20.73;;;;;;;;;;4984627;28;20153;-68
2024/01/14 06:40:49;;;;;;;53.60;20.33;;;;;;;;;;4986968;28;20042;-67
2024/01/14 06:43:14;;;;;;;50.27;21.20;;;;;;;;;;4981229;28;20039;-67
2024/01/14 06:45:40;;;;;;;54.78;21.05;;;;;;;;;;4987960;28;20862;-68
2024/01/14 06:48:05;;;;;;;52.25;20.70;;;;;;;;;;4968624;28;20045;-67
2024/01/14 06:50:31;;;;;;;51.40;20.13;;;;;;;;;;4969643;28;20041;-69
2024/01/14 06:52:56;;;;;;;54.42;21.55;;;;;;;;;;4971529;28;20093;-68
2024/01/14 06:55:21;;;;;;;54.67;20.57;;;;;;;;;;4988078;28;20022;-67
2024/01/14 06:57:46;;;;;;;57.50;21.15;;;;;;;;;;4985123;28;20731;-68
2024/01/14 07:00:12;;;;;;;53.23;20.63;;;;;;;;;;4982697;28;20034;-67
2024/01/14 07:02:38;;;;;;;53.47;21.27;;;;;;;;;;4988901;28;20305;-68
2024/01/14 07:05:04;;;;;;;70.38;27.33;;;;;;;;;;4964805;28;20026;-66
2024/01/14 07:07:29;;;;;;;68.10;26.65;;;;;;;;;;4981877;28;20057;-68
2024/01/14 07:09:55;;;;;;;56.30;20.98;;;;;;;;;;4986113;28;20432;-69
2024/01/14 07:12:20;;;;;;;55.70;21.05;;;;;;;;;;4985393;28;20054;-69
2024/01/14 07:14:45;;;;;;;52.83;20.60;;;;;;;;;;4987309;28;20030;-68
2024/01/14 07:17:11;;;;;;;61.05;22.75;;;;;;;;;;4970443;28;20030;-67
2024/01/14 07:19:36;;;;;;;62.35;23.90;;;;;;;;;;4987224;28;20541;-68
2024/01/14 07:22:02;;;;;;;59.92;23.15;;;;;;;;;;4987172;28;20451;-68
2024/01/14 07:24:27;;;;;;;66.90;22.98;;;;;;;;;;4986106;28;20084;-68
2024/01/14 07:26:53;;;;;;;58.55;21.13;;;;;;;;;;4985173;28;20432;-68
2024/01/14 07:29:18;;;;;;;59.22;22.75;;;;;;;;;;4984227;28;20464;-69
2024/01/14 07:31:43;;;;;;;70.78;23.60;;;;;;;;;;4986184;28;20066;-69
2024/01/14 07:34:08;;;;;;;63.78;22.90;;;;;;;;;;4987253;28;20030;-67
2024/01/14 07:36:34;;;;;;;65.53;22.92;;;;;;;;;;4965430;28;20085;-67
2024/01/14 07:38:59;;;;;;;73.20;26.00;;;;;;;;;;4982694;28;20062;-67
2024/01/14 07:41:25;;;;;;;65.28;24.67;;;;;;;;;;4981047;28;20049;-67
2024/01/14 07:43:50;;;;;;;58.78;22.88;;;;;;;;;;4984276;28;20110;-67
2024/01/14 07:46:15;;;;;;;55.80;21.23;;;;;;;;;;4986286;28;20033;-68
2024/01/14 07:48:42;;;;;;;59.95;21.67;;;;;;;;;;4984903;28;20319;-67
2024/01/14 07:51:07;;;;;;;58.83;22.33;;;;;;;;;;4986331;28;20026;-67
2024/01/14 07:53:32;;;;;;;67.55;24.55;;;;;;;;;;4982298;28;20090;-67
2024/01/14 07:55:58;;;;;;;63.05;24.55;;;;;;;;;;4983342;28;20026;-67
2024/01/14 07:58:24;;;;;;;66.20;24.90;;;;;;;;;;4981425;28;20693;-67
2024/01/14 08:00:49;;;;;;;60.50;21.45;;;;;;;;;;4980174;28;20038;-66
2024/01/14 08:03:15;;;;;;;60.72;22.67;;;;;;;;;;4980020;28;20026;-68
2024/01/14 08:05:40;;;;;;;60.88;22.98;;;;;;;;;;4979174;28;20424;-67
2024/01/14 08:08:06;;;;;;;65.13;24.98;;;;;;;;;;4979785;28;20037;-67
2024/01/14 08:10:34;;;;;;;62.03;23.92;;;;;;;;;;4984020;28;20065;-67
2024/01/14 08:12:59;;;;;;;54.10;21.77;;;;;;;;;;4979424;28;20032;-70
2024/01/14 08:15:25;;;;;;;57.20;23.80;;;;;;;;;;4969098;28;20022;-71
2024/01/14 08:17:50;;;;;;;58.15;23.95;;;;;;;;;;4983081;28;21071;-69
2024/01/14 08:20:15;;;;;;;63.97;23.75;;;;;;;;;;4982382;28;20034;-68
2024/01/14 08:22:41;;;;;;;60.10;22.63;;;;;;;;;;4961100;28;20022;-70
2024/01/14 08:25:07;;;;;;;50.92;22.35;;;;;;;;;;4985680;28;20292;-71
2024/01/14 08:27:33;;;;;;;59.58;21.90;;;;;;;;;;4986984;28;20046;-71
2024/01/14 08:29:58;;;;;;;59.90;21.83;;;;;;;;;;4983220;28;20049;-69
2024/01/14 08:32:23;;;;;;;61.55;23.40;;;;;;;;;;4969549;28;20030;-71
2024/01/14 08:34:49;;;;;;;56.28;23.02;;;;;;;;;;4986538;28;20034;-72
2024/01/14 08:37:14;;;;;;;63.13;24.93;;;;;;;;;;4982856;28;20033;-70
2024/01/14 08:39:39;;;;;;;61.08;24.00;;;;;;;;;;4985083;28;20284;-71
2024/01/14 08:42:04;;;;;;;63.27;24.03;;;;;;;;;;4970047;28;20045;-71
2024/01/14 08:44:30;;;;;;;58.10;22.58;;;;;;;;;;4982935;28;20371;-70
2024/01/14 08:46:55;;;;;;;63.77;24.60;;;;;;;;;;4976136;28;20092;-70
2024/01/14 08:49:21;;;;;;;60.75;22.63;;;;;;;;;;4980563;28;20287;-71
2024/01/14 08:51:46;;;;;;;54.20;22.50;;;;;;;;;;4985927;28;20041;-71
2024/01/14 08:54:12;;;;;;;58.45;22.85;;;;;;;;;;4985175;28;20038;-71
2024/01/14 08:56:37;;;;;;;62.80;24.85;;;;;;;;;;4962869;28;20038;-70
2024/01/14 08:59:02;;;;;;;59.90;24.33;;;;;;;;;;4986358;28;20022;-70
2024/01/14 09:01:27;;;;;;;57.08;24.10;;;;;;;;;;4986489;28;20367;-70
2024/01/14 09:03:53;;;;;;;54.33;21.48;;;;;;;;;;4983994;28;20022;-72
2024/01/14 09:06:18;;;;;;;66.57;24.85;;;;;;;;;;4984333;28;20023;-71
2024/01/14 09:08:43;;;;;;;64.05;25.77;;;;;;;;;;4985347;28;20034;-73
2024/01/14 09:11:09;;;;;;;60.20;25.33;;;;;;;;;;4966929;28;20072;-70
2024/01/14 09:13:35;;;;;;;59.10;25.02;;;;;;;;;;4985944;28;20034;-71
2024/01/14 09:16:01;;;;;;;58.35;25.20;;;;;;;;;;4986031;28;20034;-71
2024/01/14 09:18:26;;;;;;;61.75;24.90;;;;;;;;;;4991586;28;20034;-70
2024/01/14 09:20:52;;;;;;;60.97;25.85;;;;;;;;;;4991976;28;20034;-71
2024/01/14 09:23:17;;;;;;;61.15;25.40;;;;;;;;;;4988229;28;20142;-70
2024/01/14 09:25:43;;;;;;;61.63;26.23;;;;;;;;;;4974598;28;20117;-70
2024/01/14 09:28:08;;;;;;;67.90;28.00;;;;;;;;;;4987873;28;20117;-69
2024/01/14 09:30:33;;;;;;;67.75;26.13;;;;;;;;;;4971572;28;20061;-73
2024/01/14 09:33:00;;;;;;;64.55;26.25;;;;;;;;;;4978399;28;20034;-71
2024/01/14 09:35:25;;;;;;;63.50;27.60;;;;;;;;;;4983997;28;20098;-72
2024/01/14 09:37:50;;;;;;;65.80;27.58;;;;;;;;;;4981525;28;20035;-73
2024/01/14 09:40:18;;;;;;;68.28;27.40;;;;;;;;;;4971293;28;20026;-73
2024/01/14 09:42:47;;;;;;;60.10;25.15;;;;;;;;;;4984898;28;20110;-73
2024/01/14 09:45:13;;;;;;;64.07;27.48;;;;;;;;;;4972563;28;20038;-73
2024/01/14 09:47:38;;;;;;;66.03;26.83;;;;;;;;;;4988796;28;20636;-73
2024/01/14 09:50:04;;;;;;;63.43;25.37;;;;;;;;;;4984944;28;20113;-72
2024/01/14 09:52:31;;;;;;;63.97;27.38;;;;;;;;;;4987875;28;20275;-73
2024/01/14 09:54:57;;;;;;;64.97;27.10;;;;;;;;;;4987275;28;20519;-72
2024/01/14 09:57:23;;;;;;;66.28;26.55;;;;;;;;;;4987876;28;20030;-72
2024/01/14 09:59:52;;;;;;;63.65;27.55;;;;;;;;;;4989607;28;20392;-73
2024/01/14 10:02:21;;;;;;;73.50;28.58;;;;;;;;;;4988822;28;20030;-72
2024/01/14 10:04:46;;;;;;;64.93;26.70;;;;;;;;;;4988679;28;20030;-73
2024/01/14 10:07:12;;;;;;;65.75;28.75;;;;;;;;;;4969594;28;20565;-73
2024/01/14 10:09:41;;;;;;;77.25;33.35;;;;;;;;;;4982797;28;20038;-74
2024/01/14 10:12:07;;;;;;;;;;;;;;;;;;4985736;28;20057;-73
2024/01/14 10:14:34;;;;;;;61.47;25.33;;;;;;;;;;4991439;28;19964;-73
2024/01/14 10:16:59;;;;;;;65.25;27.98;;;;;;;;;;4987651;28;20027;-73
2024/01/14 10:19:24;;;;;;;64.85;27.05;;;;;;;;;;4971238;28;20084;-73
2024/01/14 10:21:52;;;;;;;64.57;27.15;;;;;;;;;;4986533;28;20037;-72
2024/01/14 10:24:17;;;;;;;61.75;27.33;;;;;;;;;;4972122;28;20433;-73
2024/01/14 10:26:42;;;;;;;68.32;27.70;;;;;;;;;;4990777;28;20054;-73
2024/01/14 10:29:08;;;;;;;69.07;28.10;;;;;;;;;;4989970;28;20079;-73
2024/01/14 10:31:33;;;;;;;63.97;27.87;;;;;;;;;;4969787;28;20268;-73
2024/01/14 10:34:00;;;;;;;71.22;27.88;;;;;;;;;;4987081;28;20713;-73
2024/01/14 10:36:28;;;;;;;65.95;29.52;;;;;;;;;;4985728;28;20109;-72
2024/01/14 10:38:55;;;;;;;63.55;28.25;;;;;;;;;;4987913;28;20037;-74
2024/01/14 10:41:21;;;;;;;61.67;27.13;;;;;;;;;;4981661;28;20018;-73
2024/01/14 10:43:46;;;;;;;69.38;27.83;;;;;;;;;;4985721;28;20038;-73
2024/01/14 10:46:13;;;;;;;63.10;27.30;;;;;;;;;;4985479;28;20081;-73
2024/01/14 10:48:40;;;;;;;69.35;28.58;;;;;;;;;;4987192;28;20030;-72
2024/01/14 10:51:06;;;;;;;64.93;28.20;;;;;;;;;;4981084;28;20088;-72
2024/01/14 10:53:41;;;;;;;62.45;26.30;;;;;;;;;;4983293;28;20037;-72
2024/01/14 10:56:07;;;;;;;60.28;26.83;;;;;;;;;;4981572;28;20030;-71
2024/01/14 10:58:36;;;;;;;57.47;26.17;;;;;;;;;;4983990;28;20043;-72
2024/01/14 11:01:04;;;;;;;63.77;28.00;;;;;;;;;;4966942;28;20470;-71
2024/01/14 11:03:30;;;;;;;63.03;27.65;;;;;;;;;;4987260;28;20034;-73
2024/01/14 11:05:56;;;;;;;67.38;29.23;;;;;;;;;;4963120;28;20073;-73
2024/01/14 11:08:21;;;;;;;64.65;29.45;;;;;;;;;;4985806;28;20492;-73
2024/01/14 11:10:47;;;;;;;67.65;29.40;;;;;;;;;;4987021;28;20109;-73
2024/01/14 11:13:22;;;;;;;67.97;30.00;;;;;;;;;;4967276;28;20030;-73
2024/01/14 11:16:07;;;;;;;64.57;28.90;;;;;;;;;;4987080;28;20057;-73
2024/01/14 11:18:42;;;;;;;67.68;28.27;;;;;;;;;;4969956;28;20050;-73
2024/01/14 11:21:31;;;;;;;65.47;29.48;;;;;;;;;;4983645;28;20030;-73
2024/01/14 11:23:57;;;;;;;70.20;29.38;;;;;;;;;;4967228;28;20030;-74
2024/01/14 11:26:26;;;;;;;66.22;28.88;;;;;;;;;;4982195;28;20090;-73
2024/01/14 11:28:51;;;;;;;65.53;28.65;;;;;;;;;;4985199;28;20041;-73
2024/01/14 11:31:17;;;;;;;67.68;29.08;;;;;;;;;;4983692;28;20117;-72
2024/01/14 11:33:46;;;;;;;68.75;30.10;;;;;;;;;;4984197;28;20031;-73
2024/01/14 11:36:12;;;;;;;65.18;29.23;;;;;;;;;;4980165;28;20022;-73
2024/01/14 11:38:43;;;;;;;72.13;30.98;;;;;;;;;;4982326;28;20084;-73
2024/01/14 11:41:25;;;;;;;64.38;28.02;;;;;;;;;;4962541;28;20060;-73
2024/01/14 11:43:51;;;;;;;67.72;29.10;;;;;;;;;;4976343;28;20026;-73
2024/01/14 11:46:38;;;;;;;63.97;28.05;;;;;;;;;;4980371;28;20031;-73
2024/01/14 11:49:07;;;;;;;61.00;27.85;;;;;;;;;;4979713;28;20122;-73
2024/01/14 11:51:34;;;;;;;66.35;28.92;;;;;;;;;;4978548;28;20035;-73
2024/01/14 11:54:07;;;;;;;63.42;27.55;;;;;;;;;;4981131;28;20550;-75
2024/01/14 11:56:32;;;;;;;65.65;27.27;;;;;;;;;;4984290;28;20456;-73
2024/01/14 11:58:58;;;;;;;60.38;27.38;;;;;;;;;;4981503;28;20031;-72
2024/01/14 12:01:24;;;;;;;63.67;27.55;;;;;;;;;;4982311;28;20030;-73
2024/01/14 12:04:02;;;;;;;64.72;28.60;;;;;;;;;;4983985;28;20069;-72
2024/01/14 12:06:28;;;;;;;60.78;27.98;;;;;;;;;;4981400;28;20030;-72
2024/01/14 12:09:00;;;;;;;60.92;27.15;;;;;;;;;;4979792;28;20089;-73
2024/01/14 12:11:25;;;;;;;64.88;26.83;;;;;;;;;;4978559;28;20075;-74
2024/01/14 12:13:50;;;;;;;67.68;26.52;;;;;;;;;;4981474;28;20034;-73
2024/01/14 12:16:16;;;;;;;59.15;27.23;;;;;;;;;;4979535;28;20083;-74
2024/01/14 12:18:41;;;;;;;57.45;24.90;;;;;;;;;;4980728;28;20289;-74
2024/01/14 12:21:06;;;;;;;53.72;25.90;;;;;;;;;;4961255;28;20459;-75
2024/01/14 12:23:32;;;;;;;55.97;24.15;;;;;;;;;;4961539;28;20034;-74
2024/01/14 12:26:04;;;;;;;54.37;26.27;;;;;;;;;;4984518;28;20412;-73
2024/01/14 12:28:29;;;;;;;63.42;27.67;;;;;;;;;;4981818;28;20292;-74
2024/01/14 12:30:56;;;;;;;65.22;28.30;;;;;;;;;;4968089;28;20485;-74
2024/01/14 12:33:22;;;;;;;56.05;25.60;;;;;;;;;;4980332;28;20045;-74
2024/01/14 12:35:47;;;;;;;57.30;25.23;;;;;;;;;;4982970;28;20034;-74
2024/01/14 12:38:12;;;;;;;60.80;25.17;;;;;;;;;;4985993;28;20050;-74
2024/01/14 12:40:38;;;;;;;54.22;25.08;;;;;;;;;;4986111;28;20070;-74
2024/01/14 12:43:05;;;;;;;58.25;27.25;;;;;;;;;;4985266;28;20403;-72
2024/01/14 12:45:30;;;;;;;52.53;23.50;;;;;;;;;;4980848;28;20045;-73
2024/01/14 12:48:00;;;;;;;54.10;24.02;;;;;;;;;;4965719;28;20389;-72
2024/01/14 12:50:29;;;;;;;52.63;24.52;;;;;;;;;;4984001;28;20121;-73
2024/01/14 12:52:58;;;;;;;54.20;25.58;;;;;;;;;;4988785;28;20038;-73
2024/01/14 12:55:29;;;;;;;57.67;25.85;;;;;;;1.12;nan;100059.88;4990968;28;20034;-74
2024/01/14 12:57:54;;;;;;;54.97;24.05;;;;;;;;;;4991412;28;20069;-73
2024/01/14 13:00:19;;;;;;;52.83;23.98;;;;;;;;;;4972285;28;20104;-74
2024/01/14 13:02:45;;;;;;;55.92;25.23;;;;;;;;;;4987545;28;20038;-74
2024/01/14 13:05:10;;;;;;;53.45;24.23;;;;;;;;;;4990756;28;20061;-73
2024/01/14 13:07:35;;;;;;;55.53;25.10;;;;;;;;;;4967810;28;20492;-74
2024/01/14 13:10:00;;;;;;;55.63;24.85;;;;;;;;;;4986482;28;20295;-74
2024/01/14 13:12:26;;;;;;;58.00;26.15;;;;;;;;;;4990340;28;20033;-74
2024/01/14 13:14:54;;;;;;;54.03;26.15;;;;;;;;;;4990358;28;20065;-74
2024/01/14 13:17:19;;;;;;;53.30;23.38;;;;;;;;;;4987019;28;20030;-75
2024/01/14 13:19:44;;;;;;;55.63;24.98;;;;;;;;;;4988067;28;20046;-73
2024/01/14 13:22:10;;;;;;;54.60;24.60;;;;;;;;;;4987919;28;20085;-73
2024/01/14 13:24:35;;;;;;;58.70;26.52;;;;;;;;;;4989552;28;20038;-72
2024/01/14 13:27:00;;;;;;;55.60;25.52;;;;;;;;;;4988161;28;20050;-73
2024/01/14 13:29:25;;;;;;;62.28;27.90;;;;;;;;;;4989059;28;20026;-71
2024/01/14 13:31:51;;;;;;;63.40;26.00;;;;;;;;;;4975229;28;20038;-73
2024/01/14 13:34:16;;;;;;;58.65;26.50;;;;;;;;;;4970813;28;20310;-73
2024/01/14 13:36:41;;;;;;;55.47;25.38;;;;;;;;;;4989209;28;20045;-71
2024/01/14 13:39:07;;;;;;;58.55;27.48;;;;;;;;;;4989444;28;20037;-73
2024/01/14 13:41:32;;;;;;;59.10;26.85;;;;;;;;;;4968085;28;20041;-73
2024/01/14 13:43:58;;;;;;;55.97;25.75;;;;;;;;;;4971474;28;20026;-74
2024/01/14 13:46:23;;;;;;;57.58;26.98;;;;;;;;;;4989204;28;20030;-72
2024/01/14 13:48:48;;;;;;;56.53;26.85;;;;;;;;;;4988568;28;20026;-75
2024/01/14 13:51:14;;;;;;;58.60;27.13;;;;;;;;;;4986345;28;20520;-73
2024/01/14 13:53:39;;;;;;;60.05;28.20;;;;;;;;;;4987876;28;20030;-73
2024/01/14 13:56:04;;;;;;;61.47;27.55;;;;;;;;;;4972639;28;20981;-74
2024/01/14 13:58:30;;;;;;;55.35;26.35;;;;;;;;;;4988998;28;20049;-73
2024/01/14 14:00:55;;;;;;;58.10;27.05;;;;;;;;;;4988697;28;20041;-75
2024/01/14 14:03:20;;;;;;;55.03;26.40;;;;;;;;;;4989856;28;20030;-75
2024/01/14 14:05:48;;;;;;;57.43;27.90;;;;;;;;;;4970974;28;20299;-75
2024/01/14 14:08:14;;;;;;;58.70;28.23;;;;;;;;;;4987851;28;20376;-72